Terminal Aerodrome Forecast
Issued by NWS Grand Forks, ND

Home | Current Version | Previous Version | Graphics & Text | Print | Product List | Glossary On
Versions: 1 2 3 4 5 6 7 8 9 10 11 12 13 14 15 16 17 18 19 20 21 22
000
FTUS43 KFGF 280500
TAFGFK
TAF
KGFK 280531Z 2806/2906 15010KT P6SM OVC006
     FM280800 15008KT 2SM BR OVC004
     FM281600 VRB06KT 5SM BR OVC007
     FM282000 34015G24KT P6SM OVC015=

USA.gov is the U.S. government's official web portal to all federal, state and local government web resources and services.